sensor_id;sensor_type;location;lat;lon;timestamp;P1;durP1;ratioP1;P2;durP2;ratioP2
18649;SDS011;9454;53.516;10.478;2024-03-06T00:00:54;8.25;;;4.15;;
18649;SDS011;9454;53.516;10.478;2024-03-06T00:03:58;6.88;;;3.65;;
18649;SDS011;9454;53.516;10.478;2024-03-06T00:07:02;7.50;;;3.72;;
18649;SDS011;9454;53.516;10.478;2024-03-06T00:10:06;7.32;;;4.15;;
18649;SDS011;9454;53.516;10.478;2024-03-06T00:13:11;7.15;;;3.47;;
18649;SDS011;9454;53.516;10.478;2024-03-06T00:16:15;5.53;;;3.35;;
18649;SDS011;9454;53.516;10.478;2024-03-06T00:19:21;8.05;;;4.53;;
18649;SDS011;9454;53.516;10.478;2024-03-06T00:22:25;8.40;;;3.90;;
18649;SDS011;9454;53.516;10.478;2024-03-06T00:25:28;7.00;;;3.35;;
18649;SDS011;9454;53.516;10.478;2024-03-06T00:28:34;7.60;;;3.83;;
18649;SDS011;9454;53.516;10.478;2024-03-06T00:31:37;7.28;;;3.55;;
18649;SDS011;9454;53.516;10.478;2024-03-06T00:34:41;6.88;;;3.83;;
18649;SDS011;9454;53.516;10.478;2024-03-06T00:37:44;6.57;;;3.55;;
18649;SDS011;9454;53.516;10.478;2024-03-06T00:40:48;9.50;;;3.85;;
18649;SDS011;9454;53.516;10.478;2024-03-06T00:43:53;6.43;;;3.47;;
18649;SDS011;9454;53.516;10.478;2024-03-06T00:46:56;5.72;;;3.58;;
18649;SDS011;9454;53.516;10.478;2024-03-06T00:50:00;8.30;;;3.30;;
18649;SDS011;9454;53.516;10.478;2024-03-06T00:53:04;8.38;;;3.90;;
18649;SDS011;9454;53.516;10.478;2024-03-06T00:56:07;6.18;;;2.95;;
18649;SDS011;9454;53.516;10.478;2024-03-06T00:59:23;7.97;;;3.33;;
18649;SDS011;9454;53.516;10.478;2024-03-06T01:02:28;6.38;;;3.25;;
18649;SDS011;9454;53.516;10.478;2024-03-06T01:05:33;5.65;;;2.88;;
18649;SDS011;9454;53.516;10.478;2024-03-06T01:08:36;5.10;;;2.88;;
18649;SDS011;9454;53.516;10.478;2024-03-06T01:11:39;5.22;;;3.03;;
18649;SDS011;9454;53.516;10.478;2024-03-06T01:14:45;5.80;;;3.08;;
18649;SDS011;9454;53.516;10.478;2024-03-06T01:17:50;5.82;;;3.00;;
18649;SDS011;9454;53.516;10.478;2024-03-06T01:20:54;7.70;;;3.38;;
18649;SDS011;9454;53.516;10.478;2024-03-06T01:23:57;4.47;;;2.97;;
18649;SDS011;9454;53.516;10.478;2024-03-06T01:27:01;5.20;;;2.92;;
18649;SDS011;9454;53.516;10.478;2024-03-06T01:30:06;5.80;;;2.97;;
18649;SDS011;9454;53.516;10.478;2024-03-06T01:33:10;4.10;;;2.60;;
18649;SDS011;9454;53.516;10.478;2024-03-06T01:36:13;9.70;;;4.05;;
18649;SDS011;9454;53.516;10.478;2024-03-06T01:39:18;6.93;;;3.70;;
18649;SDS011;9454;53.516;10.478;2024-03-06T01:42:22;5.47;;;3.10;;
18649;SDS011;9454;53.516;10.478;2024-03-06T01:45:27;6.35;;;3.35;;
18649;SDS011;9454;53.516;10.478;2024-03-06T01:48:32;4.40;;;2.50;;
18649;SDS011;9454;53.516;10.478;2024-03-06T01:51:36;5.57;;;3.53;;
18649;SDS011;9454;53.516;10.478;2024-03-06T01:54:40;9.38;;;3.75;;
18649;SDS011;9454;53.516;10.478;2024-03-06T01:57:44;8.30;;;3.13;;
18649;SDS011;9454;53.516;10.478;2024-03-06T02:00:50;5.57;;;3.17;;
18649;SDS011;9454;53.516;10.478;2024-03-06T02:03:55;4.70;;;2.55;;
18649;SDS011;9454;53.516;10.478;2024-03-06T02:06:59;4.70;;;3.05;;
18649;SDS011;9454;53.516;10.478;2024-03-06T02:10:03;7.50;;;3.58;;
18649;SDS011;9454;53.516;10.478;2024-03-06T02:13:08;7.68;;;2.92;;
18649;SDS011;9454;53.516;10.478;2024-03-06T02:16:13;4.75;;;2.53;;
18649;SDS011;9454;53.516;10.478;2024-03-06T02:19:19;6.75;;;3.25;;
18649;SDS011;9454;53.516;10.478;2024-03-06T02:22:24;5.75;;;3.28;;
18649;SDS011;9454;53.516;10.478;2024-03-06T02:25:28;5.72;;;3.40;;
18649;SDS011;9454;53.516;10.478;2024-03-06T02:28:32;4.72;;;2.83;;
18649;SDS011;9454;53.516;10.478;2024-03-06T02:31:38;7.50;;;2.92;;
18649;SDS011;9454;53.516;10.478;2024-03-06T02:34:42;5.35;;;3.08;;
18649;SDS011;9454;53.516;10.478;2024-03-06T02:37:47;5.53;;;3.53;;
18649;SDS011;9454;53.516;10.478;2024-03-06T02:40:51;5.95;;;2.97;;
18649;SDS011;9454;53.516;10.478;2024-03-06T02:43:54;5.43;;;3.40;;
18649;SDS011;9454;53.516;10.478;2024-03-06T02:46:58;8.38;;;4.05;;
18649;SDS011;9454;53.516;10.478;2024-03-06T02:50:01;5.13;;;3.10;;
18649;SDS011;9454;53.516;10.478;2024-03-06T02:53:08;7.10;;;3.10;;
18649;SDS011;9454;53.516;10.478;2024-03-06T02:56:15;5.88;;;3.25;;
18649;SDS011;9454;53.516;10.478;2024-03-06T02:59:22;7.10;;;2.95;;
18649;SDS011;9454;53.516;10.478;2024-03-06T03:02:26;5.78;;;2.75;;
18649;SDS011;9454;53.516;10.478;2024-03-06T03:05:29;7.22;;;3.55;;
18649;SDS011;9454;53.516;10.478;2024-03-06T03:08:36;7.30;;;2.80;;
18649;SDS011;9454;53.516;10.478;2024-03-06T03:11:41;10.63;;;2.78;;
18649;SDS011;9454;53.516;10.478;2024-03-06T03:14:45;7.55;;;3.30;;
18649;SDS011;9454;53.516;10.478;2024-03-06T03:17:49;3.92;;;2.40;;
18649;SDS011;9454;53.516;10.478;2024-03-06T03:20:52;7.70;;;3.05;;
18649;SDS011;9454;53.516;10.478;2024-03-06T03:23:57;11.30;;;2.97;;
18649;SDS011;9454;53.516;10.478;2024-03-06T03:27:01;4.45;;;2.65;;
18649;SDS011;9454;53.516;10.478;2024-03-06T03:30:05;5.35;;;2.78;;
18649;SDS011;9454;53.516;10.478;2024-03-06T03:33:11;4.53;;;2.72;;
18649;SDS011;9454;53.516;10.478;2024-03-06T03:36:19;5.45;;;2.50;;
18649;SDS011;9454;53.516;10.478;2024-03-06T03:39:24;8.45;;;2.90;;
18649;SDS011;9454;53.516;10.478;2024-03-06T03:42:28;9.05;;;3.03;;
18649;SDS011;9454;53.516;10.478;2024-03-06T03:45:32;5.22;;;2.90;;
18649;SDS011;9454;53.516;10.478;2024-03-06T03:48:36;6.10;;;3.03;;
18649;SDS011;9454;53.516;10.478;2024-03-06T03:51:41;4.13;;;2.72;;
18649;SDS011;9454;53.516;10.478;2024-03-06T03:54:46;6.65;;;2.63;;
18649;SDS011;9454;53.516;10.478;2024-03-06T03:57:50;3.88;;;2.25;;
18649;SDS011;9454;53.516;10.478;2024-03-06T04:00:53;5.30;;;2.28;;
18649;SDS011;9454;53.516;10.478;2024-03-06T04:03:57;5.55;;;2.47;;
18649;SDS011;9454;53.516;10.478;2024-03-06T04:07:01;4.15;;;2.35;;
18649;SDS011;9454;53.516;10.478;2024-03-06T04:10:07;4.40;;;2.60;;
18649;SDS011;9454;53.516;10.478;2024-03-06T04:13:14;3.25;;;2.15;;
18649;SDS011;9454;53.516;10.478;2024-03-06T04:16:21;5.65;;;2.80;;
18649;SDS011;9454;53.516;10.478;2024-03-06T04:19:31;7.20;;;2.80;;
18649;SDS011;9454;53.516;10.478;2024-03-06T04:23:07;7.53;;;3.42;;
18649;SDS011;9454;53.516;10.478;2024-03-06T04:26:24;5.90;;;2.58;;
18649;SDS011;9454;53.516;10.478;2024-03-06T04:29:57;3.53;;;2.33;;
18649;SDS011;9454;53.516;10.478;2024-03-06T04:33:09;5.18;;;2.35;;
18649;SDS011;9454;53.516;10.478;2024-03-06T04:36:36;6.25;;;2.55;;
18649;SDS011;9454;53.516;10.478;2024-03-06T04:40:01;4.25;;;2.42;;
18649;SDS011;9454;53.516;10.478;2024-03-06T04:43:17;6.90;;;3.25;;
18649;SDS011;9454;53.516;10.478;2024-03-06T04:46:26;4.82;;;3.20;;
18649;SDS011;9454;53.516;10.478;2024-03-06T04:49:42;5.40;;;3.22;;
18649;SDS011;9454;53.516;10.478;2024-03-06T04:52:46;5.90;;;3.17;;
18649;SDS011;9454;53.516;10.478;2024-03-06T04:55:50;3.65;;;2.83;;
18649;SDS011;9454;53.516;10.478;2024-03-06T04:58:55;5.30;;;2.92;;
18649;SDS011;9454;53.516;10.478;2024-03-06T05:02:04;9.57;;;3.10;;
18649;SDS011;9454;53.516;10.478;2024-03-06T05:05:08;8.70;;;3.03;;
18649;SDS011;9454;53.516;10.478;2024-03-06T05:08:29;8.13;;;2.60;;
18649;SDS011;9454;53.516;10.478;2024-03-06T05:11:50;8.80;;;2.55;;
18649;SDS011;9454;53.516;10.478;2024-03-06T05:15:12;10.18;;;2.28;;
18649;SDS011;9454;53.516;10.478;2024-03-06T05:18:33;3.85;;;2.17;;
18649;SDS011;9454;53.516;10.478;2024-03-06T05:21:54;6.72;;;2.65;;
18649;SDS011;9454;53.516;10.478;2024-03-06T05:25:15;5.50;;;2.53;;
18649;SDS011;9454;53.516;10.478;2024-03-06T05:28:37;5.32;;;2.63;;
18649;SDS011;9454;53.516;10.478;2024-03-06T05:31:59;6.38;;;2.95;;
18649;SDS011;9454;53.516;10.478;2024-03-06T05:35:20;4.07;;;2.30;;
18649;SDS011;9454;53.516;10.478;2024-03-06T05:38:41;3.22;;;2.30;;
18649;SDS011;9454;53.516;10.478;2024-03-06T05:42:03;4.75;;;2.42;;
18649;SDS011;9454;53.516;10.478;2024-03-06T05:45:24;3.55;;;2.28;;
18649;SDS011;9454;53.516;10.478;2024-03-06T05:48:47;5.25;;;2.40;;
18649;SDS011;9454;53.516;10.478;2024-03-06T05:52:09;5.93;;;2.45;;
18649;SDS011;9454;53.516;10.478;2024-03-06T05:55:30;3.63;;;2.60;;
18649;SDS011;9454;53.516;10.478;2024-03-06T05:58:51;5.07;;;2.55;;
18649;SDS011;9454;53.516;10.478;2024-03-06T06:01:56;7.68;;;2.97;;
18649;SDS011;9454;53.516;10.478;2024-03-06T06:05:01;9.18;;;4.25;;
18649;SDS011;9454;53.516;10.478;2024-03-06T06:08:24;7.55;;;3.13;;
18649;SDS011;9454;53.516;10.478;2024-03-06T06:11:27;3.90;;;2.33;;
18649;SDS011;9454;53.516;10.478;2024-03-06T06:14:31;6.32;;;3.15;;
18649;SDS011;9454;53.516;10.478;2024-03-06T06:17:35;4.40;;;2.47;;
18649;SDS011;9454;53.516;10.478;2024-03-06T06:20:41;7.05;;;2.78;;
18649;SDS011;9454;53.516;10.478;2024-03-06T06:23:45;6.22;;;3.03;;
18649;SDS011;9454;53.516;10.478;2024-03-06T06:26:48;5.93;;;2.85;;
18649;SDS011;9454;53.516;10.478;2024-03-06T06:29:52;4.35;;;2.53;;
18649;SDS011;9454;53.516;10.478;2024-03-06T06:32:57;6.47;;;2.90;;
18649;SDS011;9454;53.516;10.478;2024-03-06T06:36:02;5.88;;;2.83;;
18649;SDS011;9454;53.516;10.478;2024-03-06T06:39:06;5.75;;;3.08;;
18649;SDS011;9454;53.516;10.478;2024-03-06T06:42:13;5.35;;;2.47;;
18649;SDS011;9454;53.516;10.478;2024-03-06T06:45:17;4.88;;;2.45;;
18649;SDS011;9454;53.516;10.478;2024-03-06T06:48:20;5.68;;;2.60;;
18649;SDS011;9454;53.516;10.478;2024-03-06T06:51:25;5.88;;;3.20;;
18649;SDS011;9454;53.516;10.478;2024-03-06T06:54:29;4.82;;;2.55;;
18649;SDS011;9454;53.516;10.478;2024-03-06T06:57:33;5.78;;;3.10;;
18649;SDS011;9454;53.516;10.478;2024-03-06T07:00:36;7.10;;;3.22;;
18649;SDS011;9454;53.516;10.478;2024-03-06T07:03:40;5.78;;;2.45;;
18649;SDS011;9454;53.516;10.478;2024-03-06T07:06:49;8.82;;;2.92;;
18649;SDS011;9454;53.516;10.478;2024-03-06T07:09:52;7.30;;;3.17;;
18649;SDS011;9454;53.516;10.478;2024-03-06T07:12:56;6.55;;;3.15;;
18649;SDS011;9454;53.516;10.478;2024-03-06T07:16:02;5.18;;;3.25;;
18649;SDS011;9454;53.516;10.478;2024-03-06T07:19:05;8.77;;;3.70;;
18649;SDS011;9454;53.516;10.478;2024-03-06T07:22:10;5.25;;;3.47;;
18649;SDS011;9454;53.516;10.478;2024-03-06T07:25:14;4.90;;;3.25;;
18649;SDS011;9454;53.516;10.478;2024-03-06T07:28:21;6.63;;;3.15;;
18649;SDS011;9454;53.516;10.478;2024-03-06T07:31:37;5.15;;;2.90;;
18649;SDS011;9454;53.516;10.478;2024-03-06T07:34:41;6.20;;;2.53;;
18649;SDS011;9454;53.516;10.478;2024-03-06T07:37:46;5.78;;;3.22;;
18649;SDS011;9454;53.516;10.478;2024-03-06T07:40:49;10.75;;;3.47;;
18649;SDS011;9454;53.516;10.478;2024-03-06T07:43:53;5.32;;;3.13;;
18649;SDS011;9454;53.516;10.478;2024-03-06T07:46:57;4.55;;;2.85;;
18649;SDS011;9454;53.516;10.478;2024-03-06T07:50:01;5.80;;;3.47;;
18649;SDS011;9454;53.516;10.478;2024-03-06T07:53:07;5.60;;;3.55;;
18649;SDS011;9454;53.516;10.478;2024-03-06T07:56:13;6.00;;;3.05;;
18649;SDS011;9454;53.516;10.478;2024-03-06T07:59:21;8.15;;;4.07;;
18649;SDS011;9454;53.516;10.478;2024-03-06T08:02:25;6.82;;;3.83;;
18649;SDS011;9454;53.516;10.478;2024-03-06T08:05:30;5.32;;;3.28;;
18649;SDS011;9454;53.516;10.478;2024-03-06T08:08:36;5.38;;;3.40;;
18649;SDS011;9454;53.516;10.478;2024-03-06T08:11:52;4.57;;;3.15;;
18649;SDS011;9454;53.516;10.478;2024-03-06T08:14:57;6.38;;;3.45;;
18649;SDS011;9454;53.516;10.478;2024-03-06T08:18:08;6.30;;;2.38;;
18649;SDS011;9454;53.516;10.478;2024-03-06T08:21:13;9.05;;;3.15;;
18649;SDS011;9454;53.516;10.478;2024-03-06T08:24:18;8.48;;;3.45;;
18649;SDS011;9454;53.516;10.478;2024-03-06T08:27:22;5.32;;;2.83;;
18649;SDS011;9454;53.516;10.478;2024-03-06T08:30:26;8.45;;;3.30;;
18649;SDS011;9454;53.516;10.478;2024-03-06T08:33:29;7.53;;;3.60;;
18649;SDS011;9454;53.516;10.478;2024-03-06T08:36:33;4.68;;;3.15;;
18649;SDS011;9454;53.516;10.478;2024-03-06T08:39:38;5.97;;;2.80;;
18649;SDS011;9454;53.516;10.478;2024-03-06T08:42:42;4.97;;;3.20;;
18649;SDS011;9454;53.516;10.478;2024-03-06T08:45:49;6.07;;;3.40;;
18649;SDS011;9454;53.516;10.478;2024-03-06T08:48:53;5.97;;;3.30;;
18649;SDS011;9454;53.516;10.478;2024-03-06T08:51:57;5.07;;;2.72;;
18649;SDS011;9454;53.516;10.478;2024-03-06T08:55:02;8.10;;;2.92;;
18649;SDS011;9454;53.516;10.478;2024-03-06T08:58:07;5.30;;;3.20;;
18649;SDS011;9454;53.516;10.478;2024-03-06T09:01:17;4.95;;;2.90;;
18649;SDS011;9454;53.516;10.478;2024-03-06T09:04:21;5.32;;;2.55;;
18649;SDS011;9454;53.516;10.478;2024-03-06T09:07:25;3.53;;;2.65;;
18649;SDS011;9454;53.516;10.478;2024-03-06T09:10:30;4.97;;;2.50;;
18649;SDS011;9454;53.516;10.478;2024-03-06T09:13:35;4.35;;;2.95;;
18649;SDS011;9454;53.516;10.478;2024-03-06T09:16:40;5.63;;;3.38;;
18649;SDS011;9454;53.516;10.478;2024-03-06T09:19:51;4.80;;;2.83;;
18649;SDS011;9454;53.516;10.478;2024-03-06T09:23:17;8.32;;;3.20;;
18649;SDS011;9454;53.516;10.478;2024-03-06T09:26:25;6.88;;;3.80;;
18649;SDS011;9454;53.516;10.478;2024-03-06T09:29:29;7.30;;;3.47;;
18649;SDS011;9454;53.516;10.478;2024-03-06T09:32:37;5.85;;;3.65;;
18649;SDS011;9454;53.516;10.478;2024-03-06T09:35:44;7.38;;;3.70;;
18649;SDS011;9454;53.516;10.478;2024-03-06T09:38:48;6.65;;;3.42;;
18649;SDS011;9454;53.516;10.478;2024-03-06T09:41:55;6.72;;;3.15;;
18649;SDS011;9454;53.516;10.478;2024-03-06T09:45:00;8.65;;;4.03;;
18649;SDS011;9454;53.516;10.478;2024-03-06T09:48:04;8.63;;;3.78;;
18649;SDS011;9454;53.516;10.478;2024-03-06T09:51:14;8.30;;;4.18;;
18649;SDS011;9454;53.516;10.478;2024-03-06T09:54:19;7.07;;;4.13;;
18649;SDS011;9454;53.516;10.478;2024-03-06T09:57:25;4.45;;;2.88;;
18649;SDS011;9454;53.516;10.478;2024-03-06T10:00:29;7.40;;;3.90;;
18649;SDS011;9454;53.516;10.478;2024-03-06T10:03:34;8.73;;;4.30;;
18649;SDS011;9454;53.516;10.478;2024-03-06T10:06:39;8.27;;;3.80;;
18649;SDS011;9454;53.516;10.478;2024-03-06T10:09:44;6.93;;;3.65;;
18649;SDS011;9454;53.516;10.478;2024-03-06T10:12:52;6.80;;;3.75;;
18649;SDS011;9454;53.516;10.478;2024-03-06T10:15:59;6.70;;;3.88;;
18649;SDS011;9454;53.516;10.478;2024-03-06T10:19:14;9.50;;;3.97;;
18649;SDS011;9454;53.516;10.478;2024-03-06T10:22:21;7.03;;;4.05;;
18649;SDS011;9454;53.516;10.478;2024-03-06T10:25:26;8.13;;;4.38;;
18649;SDS011;9454;53.516;10.478;2024-03-06T10:28:31;6.47;;;4.13;;
18649;SDS011;9454;53.516;10.478;2024-03-06T10:31:35;8.95;;;4.30;;
18649;SDS011;9454;53.516;10.478;2024-03-06T10:34:39;7.88;;;4.25;;
18649;SDS011;9454;53.516;10.478;2024-03-06T10:37:43;13.73;;;4.55;;
18649;SDS011;9454;53.516;10.478;2024-03-06T10:40:48;9.27;;;4.68;;
18649;SDS011;9454;53.516;10.478;2024-03-06T10:44:00;8.27;;;4.10;;
18649;SDS011;9454;53.516;10.478;2024-03-06T10:47:14;7.47;;;4.75;;
18649;SDS011;9454;53.516;10.478;2024-03-06T10:50:23;10.02;;;4.82;;
18649;SDS011;9454;53.516;10.478;2024-03-06T10:53:27;11.60;;;4.85;;
18649;SDS011;9454;53.516;10.478;2024-03-06T10:56:35;8.43;;;4.40;;
18649;SDS011;9454;53.516;10.478;2024-03-06T10:59:41;6.97;;;4.05;;
18649;SDS011;9454;53.516;10.478;2024-03-06T11:02:47;7.55;;;3.80;;
18649;SDS011;9454;53.516;10.478;2024-03-06T11:05:51;11.52;;;4.38;;
18649;SDS011;9454;53.516;10.478;2024-03-06T11:09:08;6.95;;;4.05;;
18649;SDS011;9454;53.516;10.478;2024-03-06T11:12:35;8.63;;;4.25;;
18649;SDS011;9454;53.516;10.478;2024-03-06T11:15:51;11.23;;;3.95;;
18649;SDS011;9454;53.516;10.478;2024-03-06T11:19:07;6.10;;;3.50;;
18649;SDS011;9454;53.516;10.478;2024-03-06T11:25:59;10.45;;;3.92;;
18649;SDS011;9454;53.516;10.478;2024-03-06T11:29:10;8.98;;;4.43;;
18649;SDS011;9454;53.516;10.478;2024-03-06T11:32:22;7.30;;;3.75;;
18649;SDS011;9454;53.516;10.478;2024-03-06T11:35:31;6.97;;;3.95;;
18649;SDS011;9454;53.516;10.478;2024-03-06T11:38:38;7.20;;;3.97;;
18649;SDS011;9454;53.516;10.478;2024-03-06T11:41:47;10.75;;;3.95;;
18649;SDS011;9454;53.516;10.478;2024-03-06T11:44:56;18.17;;;5.00;;
18649;SDS011;9454;53.516;10.478;2024-03-06T11:48:08;8.02;;;4.07;;
18649;SDS011;9454;53.516;10.478;2024-03-06T11:51:19;6.63;;;3.55;;
18649;SDS011;9454;53.516;10.478;2024-03-06T11:54:26;9.75;;;3.90;;
18649;SDS011;9454;53.516;10.478;2024-03-06T11:57:45;11.43;;;3.97;;
18649;SDS011;9454;53.516;10.478;2024-03-06T12:00:53;7.00;;;4.30;;
18649;SDS011;9454;53.516;10.478;2024-03-06T12:04:03;11.30;;;4.05;;
18649;SDS011;9454;53.516;10.478;2024-03-06T12:07:10;7.28;;;4.05;;
18649;SDS011;9454;53.516;10.478;2024-03-06T12:10:16;7.78;;;4.07;;
18649;SDS011;9454;53.516;10.478;2024-03-06T12:13:21;7.65;;;4.05;;
18649;SDS011;9454;53.516;10.478;2024-03-06T12:16:30;11.05;;;4.53;;
18649;SDS011;9454;53.516;10.478;2024-03-06T12:19:35;8.23;;;4.03;;
18649;SDS011;9454;53.516;10.478;2024-03-06T12:22:44;7.25;;;3.95;;
18649;SDS011;9454;53.516;10.478;2024-03-06T12:26:05;5.32;;;3.15;;
18649;SDS011;9454;53.516;10.478;2024-03-06T12:29:16;6.03;;;3.60;;
18649;SDS011;9454;53.516;10.478;2024-03-06T12:32:22;10.63;;;4.00;;
18649;SDS011;9454;53.516;10.478;2024-03-06T12:35:38;10.75;;;4.25;;
18649;SDS011;9454;53.516;10.478;2024-03-06T12:38:44;8.65;;;4.15;;
18649;SDS011;9454;53.516;10.478;2024-03-06T12:41:48;6.63;;;3.75;;
18649;SDS011;9454;53.516;10.478;2024-03-06T12:44:53;9.90;;;4.13;;
18649;SDS011;9454;53.516;10.478;2024-03-06T12:47:57;8.23;;;3.83;;
18649;SDS011;9454;53.516;10.478;2024-03-06T12:51:02;8.52;;;3.78;;
18649;SDS011;9454;53.516;10.478;2024-03-06T12:54:13;6.82;;;3.70;;
18649;SDS011;9454;53.516;10.478;2024-03-06T12:57:24;7.32;;;4.18;;
18649;SDS011;9454;53.516;10.478;2024-03-06T13:00:29;6.40;;;4.00;;
18649;SDS011;9454;53.516;10.478;2024-03-06T13:03:35;9.10;;;4.00;;
18649;SDS011;9454;53.516;10.478;2024-03-06T13:06:43;7.70;;;4.05;;
18649;SDS011;9454;53.516;10.478;2024-03-06T13:09:49;6.55;;;3.75;;
18649;SDS011;9454;53.516;10.478;2024-03-06T13:12:53;6.57;;;3.90;;
18649;SDS011;9454;53.516;10.478;2024-03-06T13:16:04;8.30;;;3.90;;
18649;SDS011;9454;53.516;10.478;2024-03-06T13:19:17;8.18;;;3.58;;
18649;SDS011;9454;53.516;10.478;2024-03-06T13:22:27;4.78;;;3.17;;
18649;SDS011;9454;53.516;10.478;2024-03-06T13:25:31;7.30;;;3.90;;
18649;SDS011;9454;53.516;10.478;2024-03-06T13:28:34;7.30;;;3.97;;
18649;SDS011;9454;53.516;10.478;2024-03-06T13:31:38;8.65;;;4.32;;
18649;SDS011;9454;53.516;10.478;2024-03-06T13:34:46;10.00;;;4.05;;
18649;SDS011;9454;53.516;10.478;2024-03-06T13:37:51;6.28;;;3.42;;
18649;SDS011;9454;53.516;10.478;2024-03-06T13:40:55;6.95;;;3.70;;
18649;SDS011;9454;53.516;10.478;2024-03-06T13:43:59;6.45;;;3.42;;
18649;SDS011;9454;53.516;10.478;2024-03-06T13:47:03;6.95;;;3.60;;
18649;SDS011;9454;53.516;10.478;2024-03-06T13:50:07;7.80;;;4.15;;
18649;SDS011;9454;53.516;10.478;2024-03-06T13:53:13;7.35;;;3.83;;
18649;SDS011;9454;53.516;10.478;2024-03-06T13:56:17;7.20;;;3.55;;
18649;SDS011;9454;53.516;10.478;2024-03-06T13:59:21;7.47;;;3.65;;
18649;SDS011;9454;53.516;10.478;2024-03-06T14:02:25;7.60;;;3.80;;
18649;SDS011;9454;53.516;10.478;2024-03-06T14:05:28;6.45;;;3.78;;
18649;SDS011;9454;53.516;10.478;2024-03-06T14:08:34;12.43;;;4.00;;
18649;SDS011;9454;53.516;10.478;2024-03-06T14:11:40;9.35;;;4.63;;
18649;SDS011;9454;53.516;10.478;2024-03-06T14:14:44;7.18;;;3.88;;
18649;SDS011;9454;53.516;10.478;2024-03-06T14:17:48;6.50;;;3.90;;
18649;SDS011;9454;53.516;10.478;2024-03-06T14:20:52;6.22;;;3.67;;
18649;SDS011;9454;53.516;10.478;2024-03-06T14:23:59;7.22;;;3.55;;
18649;SDS011;9454;53.516;10.478;2024-03-06T14:27:05;12.25;;;4.10;;
18649;SDS011;9454;53.516;10.478;2024-03-06T14:30:08;7.90;;;4.15;;
18649;SDS011;9454;53.516;10.478;2024-03-06T14:33:13;7.43;;;3.55;;
18649;SDS011;9454;53.516;10.478;2024-03-06T14:36:16;17.88;;;7.47;;
18649;SDS011;9454;53.516;10.478;2024-03-06T14:39:22;7.97;;;4.57;;
18649;SDS011;9454;53.516;10.478;2024-03-06T14:42:25;15.45;;;5.78;;
18649;SDS011;9454;53.516;10.478;2024-03-06T14:45:29;15.90;;;6.47;;
18649;SDS011;9454;53.516;10.478;2024-03-06T14:48:32;16.75;;;6.10;;
18649;SDS011;9454;53.516;10.478;2024-03-06T14:51:36;8.20;;;4.43;;
18649;SDS011;9454;53.516;10.478;2024-03-06T14:54:41;7.78;;;4.00;;
18649;SDS011;9454;53.516;10.478;2024-03-06T14:57:47;8.13;;;4.22;;
18649;SDS011;9454;53.516;10.478;2024-03-06T15:00:51;8.63;;;3.88;;
18649;SDS011;9454;53.516;10.478;2024-03-06T15:03:56;5.32;;;3.40;;
18649;SDS011;9454;53.516;10.478;2024-03-06T15:07:01;5.90;;;3.30;;
18649;SDS011;9454;53.516;10.478;2024-03-06T15:10:07;5.97;;;3.03;;
18649;SDS011;9454;53.516;10.478;2024-03-06T15:13:10;8.18;;;3.28;;
18649;SDS011;9454;53.516;10.478;2024-03-06T15:16:17;6.55;;;3.70;;
18649;SDS011;9454;53.516;10.478;2024-03-06T15:19:20;6.80;;;3.97;;
18649;SDS011;9454;53.516;10.478;2024-03-06T15:22:24;11.13;;;3.67;;
18649;SDS011;9454;53.516;10.478;2024-03-06T15:25:30;9.48;;;3.33;;
18649;SDS011;9454;53.516;10.478;2024-03-06T15:28:34;9.43;;;3.40;;
18649;SDS011;9454;53.516;10.478;2024-03-06T15:31:37;7.32;;;3.42;;
18649;SDS011;9454;53.516;10.478;2024-03-06T15:34:44;7.28;;;4.07;;
18649;SDS011;9454;53.516;10.478;2024-03-06T15:37:48;7.10;;;3.63;;
18649;SDS011;9454;53.516;10.478;2024-03-06T15:40:53;5.05;;;3.10;;
18649;SDS011;9454;53.516;10.478;2024-03-06T15:43:57;4.85;;;3.08;;
18649;SDS011;9454;53.516;10.478;2024-03-06T15:47:01;6.82;;;4.05;;
18649;SDS011;9454;53.516;10.478;2024-03-06T15:50:11;7.20;;;3.25;;
18649;SDS011;9454;53.516;10.478;2024-03-06T15:53:15;6.88;;;3.50;;
18649;SDS011;9454;53.516;10.478;2024-03-06T15:56:20;7.32;;;3.22;;
18649;SDS011;9454;53.516;10.478;2024-03-06T15:59:24;6.32;;;3.50;;
18649;SDS011;9454;53.516;10.478;2024-03-06T16:02:30;6.88;;;3.65;;
18649;SDS011;9454;53.516;10.478;2024-03-06T16:05:38;7.45;;;2.97;;
18649;SDS011;9454;53.516;10.478;2024-03-06T16:08:51;6.90;;;3.63;;
18649;SDS011;9454;53.516;10.478;2024-03-06T16:11:57;5.65;;;3.20;;
18649;SDS011;9454;53.516;10.478;2024-03-06T16:15:01;4.82;;;2.63;;
18649;SDS011;9454;53.516;10.478;2024-03-06T16:18:05;5.93;;;3.28;;
18649;SDS011;9454;53.516;10.478;2024-03-06T16:21:12;6.45;;;3.83;;
18649;SDS011;9454;53.516;10.478;2024-03-06T16:24:21;5.25;;;3.10;;
18649;SDS011;9454;53.516;10.478;2024-03-06T16:27:26;5.00;;;2.83;;
18649;SDS011;9454;53.516;10.478;2024-03-06T16:30:34;5.72;;;2.97;;
18649;SDS011;9454;53.516;10.478;2024-03-06T16:33:38;10.88;;;3.63;;
18649;SDS011;9454;53.516;10.478;2024-03-06T16:36:52;6.63;;;3.05;;
18649;SDS011;9454;53.516;10.478;2024-03-06T16:39:59;4.80;;;2.55;;
18649;SDS011;9454;53.516;10.478;2024-03-06T16:43:06;6.28;;;3.42;;
18649;SDS011;9454;53.516;10.478;2024-03-06T16:46:10;6.43;;;3.17;;
18649;SDS011;9454;53.516;10.478;2024-03-06T16:49:15;5.30;;;2.65;;
18649;SDS011;9454;53.516;10.478;2024-03-06T16:52:24;4.22;;;2.60;;
18649;SDS011;9454;53.516;10.478;2024-03-06T16:55:27;5.50;;;2.97;;
18649;SDS011;9454;53.516;10.478;2024-03-06T16:58:35;4.97;;;3.30;;
18649;SDS011;9454;53.516;10.478;2024-03-06T17:01:41;6.38;;;3.15;;
18649;SDS011;9454;53.516;10.478;2024-03-06T17:04:45;8.30;;;3.95;;
18649;SDS011;9454;53.516;10.478;2024-03-06T17:07:53;5.57;;;2.90;;
18649;SDS011;9454;53.516;10.478;2024-03-06T17:11:01;5.18;;;3.00;;
18649;SDS011;9454;53.516;10.478;2024-03-06T17:14:24;5.82;;;3.42;;
18649;SDS011;9454;53.516;10.478;2024-03-06T17:17:30;4.10;;;2.67;;
18649;SDS011;9454;53.516;10.478;2024-03-06T17:20:41;4.45;;;3.10;;
18649;SDS011;9454;53.516;10.478;2024-03-06T17:23:49;8.10;;;3.38;;
18649;SDS011;9454;53.516;10.478;2024-03-06T17:26:56;5.88;;;3.42;;
18649;SDS011;9454;53.516;10.478;2024-03-06T17:30:06;7.15;;;3.20;;
18649;SDS011;9454;53.516;10.478;2024-03-06T17:33:23;5.35;;;3.13;;
18649;SDS011;9454;53.516;10.478;2024-03-06T17:36:28;7.72;;;3.38;;
18649;SDS011;9454;53.516;10.478;2024-03-06T17:39:37;6.85;;;3.70;;
18649;SDS011;9454;53.516;10.478;2024-03-06T17:42:41;4.72;;;2.70;;
18649;SDS011;9454;53.516;10.478;2024-03-06T17:45:59;7.43;;;3.03;;
18649;SDS011;9454;53.516;10.478;2024-03-06T17:49:08;5.32;;;3.03;;
18649;SDS011;9454;53.516;10.478;2024-03-06T17:52:12;5.85;;;3.20;;
18649;SDS011;9454;53.516;10.478;2024-03-06T17:55:17;4.57;;;3.00;;
18649;SDS011;9454;53.516;10.478;2024-03-06T17:58:20;4.07;;;2.92;;
18649;SDS011;9454;53.516;10.478;2024-03-06T18:01:25;6.45;;;2.75;;
18649;SDS011;9454;53.516;10.478;2024-03-06T18:04:29;4.65;;;2.88;;
18649;SDS011;9454;53.516;10.478;2024-03-06T18:07:33;4.68;;;2.60;;
18649;SDS011;9454;53.516;10.478;2024-03-06T18:10:37;6.43;;;2.85;;
18649;SDS011;9454;53.516;10.478;2024-03-06T18:13:40;6.50;;;2.88;;
18649;SDS011;9454;53.516;10.478;2024-03-06T18:16:50;4.88;;;2.83;;
18649;SDS011;9454;53.516;10.478;2024-03-06T18:19:54;4.28;;;3.13;;
18649;SDS011;9454;53.516;10.478;2024-03-06T18:22:57;4.88;;;2.70;;
18649;SDS011;9454;53.516;10.478;2024-03-06T18:26:01;5.85;;;3.88;;
18649;SDS011;9454;53.516;10.478;2024-03-06T18:29:05;5.15;;;3.05;;
18649;SDS011;9454;53.516;10.478;2024-03-06T18:32:11;5.30;;;3.17;;
18649;SDS011;9454;53.516;10.478;2024-03-06T18:35:15;8.73;;;3.30;;
18649;SDS011;9454;53.516;10.478;2024-03-06T18:38:19;6.55;;;2.90;;
18649;SDS011;9454;53.516;10.478;2024-03-06T18:41:22;4.95;;;3.35;;
18649;SDS011;9454;53.516;10.478;2024-03-06T18:44:26;4.65;;;3.45;;
18649;SDS011;9454;53.516;10.478;2024-03-06T18:47:32;8.77;;;3.83;;